Time;durP1;ratioP1;P1;durP2;ratioP2;P2;SDS_P1;SDS_P2;PMS_P1;PMS_P2;Temp;Humidity;BMP_temperature;BMP_pressure;BME280_temperature;BME280_humidity;BME280_pressure;Samples;Min_cycle;Max_cycle;Signal;HPM_P1;HPM_P2
2021/05/09 00:03:26;;;;;;;11.73;9.60;;;;;;;5.56;100.00;100826.38;256091;1097;114894;-77
2021/05/09 00:08:28;;;;;;;10.70;8.40;;;;;;;5.56;99.69;100839.60;256476;1099;114403;-77
2021/05/09 00:13:30;;;;;;;9.28;7.88;;;;;;;5.33;100.00;100837.23;256272;1104;113905;-76
2021/05/09 00:18:33;;;;;;;9.20;6.90;;;;;;;5.46;99.17;100822.97;256030;1098;114402;-78
2021/05/09 00:23:35;;;;;;;10.68;7.23;;;;;;;5.34;100.00;100821.34;256180;1097;114011;-77
2021/05/09 00:28:37;;;;;;;9.30;7.78;;;;;;;5.13;100.00;100824.22;255896;1104;114551;-77
2021/05/09 00:33:40;;;;;;;14.25;9.70;;;;;;;4.91;100.00;100827.08;256220;1104;114079;-78
2021/05/09 00:38:42;;;;;;;12.78;10.40;;;;;;;4.74;100.00;100829.88;256685;1104;114529;-79
2021/05/09 00:43:45;;;;;;;17.28;13.20;;;;;;;4.78;100.00;100826.34;256299;1100;114710;-76
2021/05/09 00:48:47;;;;;;;17.33;12.53;;;;;;;4.84;98.49;100828.92;256105;1099;115355;-79
2021/05/09 00:53:51;;;;;;;16.15;12.20;;;;;;;4.99;94.87;100813.81;255987;1104;114343;-77
2021/05/09 00:58:56;;;;;;;14.63;11.13;;;;;;;5.08;93.05;100814.59;256153;1100;114734;-78
2021/05/09 01:03:59;;;;;;;14.65;12.10;;;;;;;5.19;90.42;100817.13;256120;1104;114388;-78
2021/05/09 01:09:02;;;;;;;16.23;10.75;;;;;;;5.24;89.17;100810.00;256136;1099;114277;-77
2021/05/09 01:14:05;;;;;;;13.53;10.73;;;;;;;5.39;88.35;100814.23;256223;1100;114635;-80
2021/05/09 01:19:07;;;;;;;17.75;12.38;;;;;;;4.99;90.77;100829.66;256306;1099;114416;-78
2021/05/09 01:24:09;;;;;;;16.50;11.70;;;;;;;5.00;89.81;100828.78;256225;1104;114241;-78
2021/05/09 01:29:12;;;;;;;17.47;11.40;;;;;;;4.90;90.69;100823.58;256131;1098;114403;-78
2021/05/09 01:34:14;;;;;;;18.40;12.20;;;;;;;4.82;92.23;100843.04;256159;1104;114405;-78
2021/05/09 01:39:16;;;;;;;15.25;11.15;;;;;;;4.85;91.92;100833.33;256450;1099;114196;-76
2021/05/09 01:44:19;;;;;;;11.38;9.63;;;;;;;5.00;91.48;100831.42;256608;1099;114422;-79
2021/05/09 01:49:21;;;;;;;15.55;10.98;;;;;;;5.01;91.01;100838.43;256226;1104;114432;-76
2021/05/09 01:54:23;;;;;;;19.33;12.75;;;;;;;4.78;92.44;100844.83;256136;1099;114553;-76
2021/05/09 01:59:25;;;;;;;13.28;11.60;;;;;;;4.86;91.72;100840.36;256107;1104;114282;-78
2021/05/09 02:04:27;;;;;;;16.55;11.70;;;;;;;4.92;90.72;100840.30;256291;1099;114380;-76
2021/05/09 02:09:29;;;;;;;16.68;11.83;;;;;;;4.93;90.35;100847.31;256122;1104;114879;-78
2021/05/09 02:14:31;;;;;;;14.58;11.10;;;;;;;4.91;90.45;100849.11;256069;1099;114568;-79
2021/05/09 02:19:34;;;;;;;14.03;11.93;;;;;;;4.93;91.49;100847.31;256293;1099;114428;-78
2021/05/09 02:24:36;;;;;;;14.65;11.10;;;;;;;4.89;91.55;100845.59;256148;1099;114170;-77
2021/05/09 02:29:39;;;;;;;13.80;10.18;;;;;;;4.81;92.78;100847.43;256230;1100;114299;-78
2021/05/09 02:34:41;;;;;;;16.23;11.50;;;;;;;4.77;96.58;100859.78;256155;1100;114307;-77
2021/05/09 02:39:45;;;;;;;15.83;12.18;;;;;;;4.58;95.46;100856.41;256375;1099;114368;-77
2021/05/09 02:44:47;;;;;;;14.08;11.30;;;;;;;4.49;97.03;100860.89;256177;1104;114242;-77
2021/05/09 02:49:49;;;;;;;16.93;11.80;;;;;;;4.29;98.95;100865.45;256170;1104;114544;-78
2021/05/09 02:54:52;;;;;;;16.60;11.75;;;;;;;4.24;99.83;100864.58;256277;1104;114391;-75
2021/05/09 02:59:54;;;;;;;16.78;11.30;;;;;;;4.18;100.00;100851.42;256357;1104;114380;-78
2021/05/09 03:04:56;;;;;;;17.15;13.18;;;;;;;4.17;100.00;100865.50;258954;1099;114440;-77
2021/05/09 03:09:59;;;;;;;17.70;13.37;;;;;;;4.23;100.00;100868.09;255955;1104;114392;-78
2021/05/09 03:15:01;;;;;;;21.45;12.28;;;;;;;4.31;100.00;100868.93;256208;1104;114729;-78
2021/05/09 03:20:04;;;;;;;18.10;13.48;;;;;;;4.30;100.00;100872.45;256039;1099;115055;-75
2021/05/09 03:25:06;;;;;;;15.20;13.45;;;;;;;4.33;100.00;100868.05;256447;1104;114286;-76
2021/05/09 03:30:09;;;;;;;18.05;13.38;;;;;;;4.45;100.00;100860.03;256387;1104;114407;-76
2021/05/09 03:35:12;;;;;;;18.50;14.38;;;;;;;4.48;100.00;100860.03;256403;1104;114700;-76
2021/05/09 03:40:14;;;;;;;15.60;13.43;;;;;;;4.50;100.00;100855.63;256636;1104;114383;-75
2021/05/09 03:45:16;;;;;;;18.00;15.28;;;;;;;4.56;100.00;100860.86;257586;1100;114354;-76
2021/05/09 03:50:18;;;;;;;17.23;13.23;;;;;;;4.48;100.00;100860.03;256510;1099;114865;-74
2021/05/09 03:55:20;;;;;;;16.93;13.08;;;;;;;4.46;100.00;100867.08;256040;1104;114382;-75
2021/05/09 04:00:23;;;;;;;18.93;14.55;;;;;;;4.58;100.00;100866.97;256075;1104;114263;-77
2021/05/09 04:05:25;;;;;;;14.98;12.68;;;;;;;4.69;100.00;100866.89;256630;1100;114304;-76
2021/05/09 04:10:27;;;;;;;15.63;13.25;;;;;;;4.78;100.00;100863.32;256639;1104;114823;-78
2021/05/09 04:15:29;;;;;;;16.55;12.48;;;;;;;5.01;100.00;100864.85;256687;1104;114498;-76
2021/05/09 04:20:32;;;;;;;16.65;12.18;;;;;;;5.11;100.00;100861.25;257162;1100;114446;-75
2021/05/09 04:25:34;;;;;;;13.98;12.35;;;;;;;5.28;100.00;100857.56;257142;1099;114497;-76
2021/05/09 04:30:37;;;;;;;16.35;12.50;;;;;;;5.38;98.23;100853.91;256003;1104;114662;-76
2021/05/09 04:35:42;;;;;;;21.77;14.53;;;;;;;5.42;97.40;100853.00;256082;1104;114362;-76
2021/05/09 04:40:45;;;;;;;15.65;14.05;;;;;;;5.49;98.04;100846.75;256007;1099;114317;-74
2021/05/09 04:45:49;;;;;;;14.45;12.18;;;;;;;5.61;95.48;100855.42;256217;1104;114278;-77
2021/05/09 04:50:52;;;;;;;20.13;13.60;;;;;;;5.70;94.58;100863.25;256524;1104;114515;-77
2021/05/09 04:55:57;;;;;;;14.53;12.23;;;;;;;5.85;94.21;100852.45;256237;1099;114152;-78
2021/05/09 05:01:04;;;;;;;14.73;12.40;;;;;;;6.01;94.47;100857.58;256220;1099;114184;-76
2021/05/09 05:06:06;;;;;;;14.95;12.10;;;;;;;6.10;93.55;100846.88;256235;1104;114389;-77
2021/05/09 05:11:08;;;;;;;12.23;10.30;;;;;;;6.37;89.78;100847.35;256038;1097;114470;-77
2021/05/09 05:16:11;;;;;;;14.20;10.63;;;;;;;6.52;88.61;100839.17;256368;1099;114256;-77
2021/05/09 05:21:13;;;;;;;12.58;11.00;;;;;;;6.54;88.24;100841.79;256084;1100;114351;-77
2021/05/09 05:26:15;;;;;;;14.20;9.83;;;;;;;6.73;85.18;100834.41;256247;1099;114366;-77
2021/05/09 05:31:17;;;;;;;12.08;9.65;;;;;;;6.85;84.16;100839.50;256319;1104;114343;-76
2021/05/09 05:36:19;;;;;;;9.85;7.85;;;;;;;7.07;82.54;100838.25;256321;1099;114256;-76
2021/05/09 05:41:21;;;;;;;13.38;8.33;;;;;;;7.41;80.02;100838.47;256259;1098;114148;-76
2021/05/09 05:46:27;;;;;;;11.78;7.73;;;;;;;7.70;76.88;100849.41;256342;1098;114098;-77
2021/05/09 05:51:29;;;;;;;8.05;7.25;;;;;;;7.84;76.69;100841.14;256885;1104;114704;-79
2021/05/09 05:56:31;;;;;;;8.25;7.05;;;;;;;8.16;75.58;100840.42;256886;1098;114201;-78
2021/05/09 06:01:33;;;;;;;8.23;6.28;;;;;;;8.37;72.62;100836.41;256630;1104;113948;-78
2021/05/09 06:06:36;;;;;;;8.00;6.70;;;;;;;8.45;72.80;100834.45;256689;1104;113963;-79
2021/05/09 06:11:38;;;;;;;6.55;5.73;;;;;;;8.55;72.24;100834.23;256568;1104;114005;-79
2021/05/09 06:16:40;;;;;;;7.75;6.95;;;;;;;8.58;75.78;100828.86;256448;1104;114046;-78
2021/05/09 06:21:42;;;;;;;7.88;6.65;;;;;;;8.63;73.85;100821.64;256068;1104;114047;-76
2021/05/09 06:26:44;;;;;;;7.00;6.30;;;;;;;9.01;71.25;100816.23;256115;1097;114116;-77
2021/05/09 06:31:46;;;;;;;6.23;5.33;;;;;;;9.13;69.80;100823.02;256366;1104;114164;-75
2021/05/09 06:36:48;;;;;;;7.30;5.10;;;;;;;9.32;67.02;100810.95;255877;1104;114118;-76
2021/05/09 06:41:51;;;;;;;7.15;5.25;;;;;;;9.52;66.27;100806.84;255750;1104;114167;-76
2021/05/09 06:46:53;;;;;;;5.25;4.75;;;;;;;9.77;62.71;100806.13;255733;1104;114078;-77
2021/05/09 06:51:58;;;;;;;7.00;5.03;;;;;;;9.92;61.00;100794.13;256008;1104;114209;-73
2021/05/09 06:57:03;;;;;;;4.83;4.33;;;;;;;10.10;60.66;100795.34;255731;1104;114113;-76
2021/05/09 07:02:05;;;;;;;4.78;4.18;;;;;;;10.20;61.39;100792.34;256403;1104;114263;-77
2021/05/09 07:07:08;;;;;;;5.48;3.88;;;;;;;10.50;59.96;100796.77;256102;1096;114211;-76
2021/05/09 07:12:10;;;;;;;6.55;4.40;;;;;;;10.78;55.79;100798.50;256114;1096;114100;-76
2021/05/09 07:17:12;;;;;;;6.63;4.40;;;;;;;10.94;55.77;100783.69;255916;1104;114566;-75
2021/05/09 07:22:25;;;;;;;5.00;4.15;;;;;;;11.05;54.04;100793.98;255750;1097;114388;-76
2021/05/09 07:27:27;;;;;;;4.63;3.58;;;;;;;11.10;54.71;100791.15;255995;1097;114231;-78
2021/05/09 07:32:29;;;;;;;4.83;4.10;;;;;;;11.36;53.61;100797.32;256190;1098;115352;-77
2021/05/09 07:37:31;;;;;;;5.10;4.33;;;;;;;11.48;52.97;100796.89;255478;1100;114360;-73
2021/05/09 07:42:33;;;;;;;4.80;4.30;;;;;;;11.43;53.42;100804.18;255358;1104;115779;-72
2021/05/09 07:47:35;;;;;;;5.28;4.33;;;;;;;11.52;52.38;100802.98;255531;1104;115688;-70
2021/05/09 07:57:48;;;;;;;4.33;3.93;;;;;;;11.75;54.41;100756.70;255824;1088;115494;-73
2021/05/09 08:02:51;;;;;;;4.63;3.78;;;;;;;12.08;52.16;100767.00;255905;1104;115574;-73
2021/05/09 08:07:57;;;;;;;5.63;4.65;;;;;;;12.21;51.53;100762.04;255525;1104;115698;-73
2021/05/09 08:12:59;;;;;;;5.60;4.55;;;;;;;12.30;50.76;100760.78;255741;1104;115491;-76
2021/05/09 08:18:02;;;;;;;5.15;3.78;;;;;;;12.50;49.75;100755.47;256017;1099;115401;-72
2021/05/09 08:23:05;;;;;;;4.67;3.70;;;;;;;12.70;50.09;100746.61;255742;1104;114604;-75
2021/05/09 08:28:07;;;;;;;3.95;3.53;;;;;;;12.70;49.46;100748.39;255239;1104;114298;-72
2021/05/09 08:33:09;;;;;;;4.68;3.75;;;;;;;12.80;50.14;100728.34;255954;1100;114550;-74
2021/05/09 08:38:11;;;;;;;3.73;2.70;;;;;;;12.85;49.61;100733.50;256143;1104;114208;-72
2021/05/09 08:43:13;;;;;;;4.33;3.00;;;;;;;13.00;50.01;100731.94;255571;1099;114425;-72
2021/05/09 08:48:19;;;;;;;3.68;3.05;;;;;;;13.39;47.80;100753.39;255601;1104;114240;-73
2021/05/09 08:53:22;;;;;;;3.53;3.23;;;;;;;13.31;48.43;100746.63;255906;1099;114388;-76
2021/05/09 08:58:25;;;;;;;3.43;3.13;;;;;;;13.46;46.73;100751.27;255973;1100;114981;-76
2021/05/09 09:03:28;;;;;;;3.53;3.18;;;;;;;13.59;47.11;100729.30;256261;1100;114212;-77
2021/05/09 09:08:48;;;;;;;5.40;3.10;;;;;;;13.68;48.41;100710.09;256261;1099;114265;-72
2021/05/09 09:14:08;;;;;;;4.60;3.50;;;;;;;13.94;46.45;100724.05;256063;1104;114739;-74
2021/05/09 09:19:12;;;;;;;4.03;3.48;;;;;;;14.02;47.12;100711.16;258316;1100;114403;-75
2021/05/09 09:24:14;;;;;;;3.88;3.25;;;;;;;14.21;45.99;100708.39;257666;1104;114500;-75
2021/05/09 09:29:30;;;;;;;6.80;4.35;;;;;;;14.25;45.60;100711.79;256351;1099;115407;-75
2021/05/09 09:34:45;;;;;;;6.13;3.30;;;;;;;14.30;46.87;100707.94;256084;1099;114233;-76
2021/05/09 09:39:57;;;;;;;5.03;3.70;;;;;;;14.61;44.12;100709.06;256115;1100;114191;-74
2021/05/09 09:45:26;;;;;;;3.98;3.10;;;;;;;14.66;44.69;100706.14;256378;1104;114321;-74
2021/05/09 09:50:50;;;;;;;2.40;2.20;;;;;;;14.94;45.03;100699.35;255869;1104;114409;-72
2021/05/09 09:56:08;;;;;;;4.13;3.73;;;;;;;15.00;46.07;100699.02;255933;1104;114226;-75
2021/05/09 10:01:12;;;;;;;3.23;2.70;;;;;;;15.18;46.11;100696.27;256036;1100;114590;-73
2021/05/09 10:06:16;;;;;;;3.20;2.90;;;;;;;15.28;43.86;100697.52;256063;1104;114928;-72
2021/05/09 10:11:19;;;;;;;4.38;3.10;;;;;;;15.26;45.96;100694.04;255904;1100;114718;-74
2021/05/09 10:16:23;;;;;;;3.68;2.63;;;;;;;15.38;45.71;100682.61;256189;1100;114599;-77
2021/05/09 10:21:27;;;;;;;3.63;2.53;;;;;;;15.73;45.29;100687.81;256219;1099;114311;-76
2021/05/09 10:26:30;;;;;;;2.78;2.13;;;;;;;15.74;46.74;100686.86;256145;1104;114247;-74
2021/05/09 10:31:32;;;;;;;3.40;2.40;;;;;;;15.99;44.79;100677.44;257059;1100;114483;-77
2021/05/09 10:36:34;;;;;;;2.78;2.40;;;;;;;15.99;42.68;100671.17;256565;1100;114240;-75
2021/05/09 10:42:00;;;;;;;3.00;2.55;;;;;;;16.02;42.44;100677.23;255768;1105;114411;-75
2021/05/09 10:47:04;;;;;;;2.60;2.40;;;;;;;16.13;43.18;100656.94;255700;1104;114269;-74
2021/05/09 10:52:58;;;;;;;2.43;2.23;;;;;;;16.45;43.05;100667.58;255871;1104;114740;-74
2021/05/09 10:58:00;;;;;;;4.70;2.87;;;;;;;17.02;42.75;100650.67;255599;1100;114596;-73
2021/05/09 11:03:37;;;;;;;2.63;2.23;;;;;;;17.12;42.79;100650.95;255660;1099;114544;-74
2021/05/09 11:08:42;;;;;;;2.23;2.03;;;;;;;17.12;40.96;100634.79;256286;1099;114321;-72
2021/05/09 11:14:00;;;;;;;2.10;1.90;;;;;;;17.36;40.00;100638.59;255974;1099;114262;-75
2021/05/09 11:19:17;;;;;;;3.08;2.00;;;;;;;17.46;38.63;100619.14;256159;1104;114234;-75
2021/05/09 11:24:30;;;;;;;2.03;1.90;;;;;;;17.92;37.62;100620.61;256390;1099;114661;-80
2021/05/09 11:29:32;;;;;;;2.05;1.90;;;;;;;18.19;37.23;100625.97;256225;1104;114939;-76
2021/05/09 11:34:34;;;;;;;2.20;2.00;;;;;;;18.39;35.89;100612.97;255950;1099;114384;-74
2021/05/09 11:39:38;;;;;;;2.20;1.98;;;;;;;18.59;36.18;100593.53;255662;1104;114490;-76
2021/05/09 11:44:43;;;;;;;4.65;1.68;;;;;;;18.45;36.59;100601.73;256139;1100;114476;-77
2021/05/09 11:49:45;;;;;;;2.37;1.97;;;;;;;18.22;37.69;100588.00;256202;1100;114454;-76
2021/05/09 11:55:09;;;;;;;2.68;1.50;;;;;;;18.24;36.30;100586.08;255865;1104;114523;-75
2021/05/09 12:00:13;;;;;;;2.60;1.55;;;;;;;18.56;33.52;100591.04;256145;1100;114341;-76
2021/05/09 12:05:18;;;;;;;1.93;1.73;;;;;;;19.66;32.35;100584.98;256255;1099;114220;-77
2021/05/09 12:10:26;;;;;;;2.33;1.50;;;;;;;20.61;29.19;100573.20;256228;1104;114262;-78
2021/05/09 12:15:32;;;;;;;1.53;1.43;;;;;;;19.97;30.46;100577.25;256111;1100;114442;-76
2021/05/09 12:20:38;;;;;;;2.18;1.53;;;;;;;19.80;31.06;100582.09;256617;1100;114514;-75
2021/05/09 12:25:48;;;;;;;1.73;1.50;;;;;;;19.25;33.68;100560.91;256384;1104;114685;-75
2021/05/09 12:30:51;;;;;;;1.48;1.38;;;;;;;19.39;32.46;100554.48;256172;1104;114244;-75
2021/05/09 12:35:55;;;;;;;2.77;1.70;;;;;;;19.38;34.88;100555.46;256035;1104;114481;-76
2021/05/09 12:41:03;;;;;;;2.17;1.47;;;;;;;19.35;31.82;100557.53;256117;1104;114470;-75
2021/05/09 12:46:05;;;;;;;2.15;1.83;;;;;;;19.27;33.41;100553.55;256131;1099;114177;-73
2021/05/09 12:51:14;;;;;;;1.50;1.40;;;;;;;19.34;32.10;100537.76;256073;1104;114380;-72
2021/05/09 12:56:21;;;;;;;2.30;1.33;;;;;;;19.36;31.61;100532.23;255534;1104;114696;-73
2021/05/09 13:01:24;;;;;;;2.83;1.30;;;;;;;20.16;32.53;100536.95;256114;1100;114271;-74
2021/05/09 13:06:26;;;;;;;1.40;1.30;;;;;;;19.52;32.25;100521.97;256180;1100;114197;-74
2021/05/09 13:11:28;;;;;;;2.90;1.63;;;;;;;19.42;32.17;100516.39;256186;1099;114582;-72
2021/05/09 13:16:30;;;;;;;1.30;1.20;;;;;;;19.53;32.17;100504.77;256136;1104;114571;-73
2021/05/09 13:21:32;;;;;;;1.30;1.20;;;;;;;20.13;32.39;100499.33;256135;1104;114562;-78
2021/05/09 13:26:34;;;;;;;1.40;1.30;;;;;;;19.95;30.97;100508.86;256081;1104;114482;-74
2021/05/09 13:31:36;;;;;;;1.78;1.35;;;;;;;19.87;31.28;100513.06;256153;1100;114809;-75
2021/05/09 13:36:39;;;;;;;1.53;1.43;;;;;;;20.08;31.83;100508.78;256784;1104;114950;-78
2021/05/09 13:41:41;;;;;;;1.90;1.20;;;;;;;20.07;31.88;100502.52;257547;1100;115593;-78
2021/05/09 13:46:43;;;;;;;1.50;1.38;;;;;;;20.20;32.63;100505.98;256184;1104;114480;-77
2021/05/09 13:51:45;;;;;;;1.43;1.33;;;;;;;19.95;32.41;100487.22;256359;1100;114419;-75
2021/05/09 13:56:47;;;;;;;2.17;1.10;;;;;;;20.18;31.59;100497.11;256257;1100;114409;-74
2021/05/09 14:01:49;;;;;;;1.10;1.03;;;;;;;20.06;30.79;100481.84;255912;1104;114344;-75
2021/05/09 14:06:53;;;;;;;2.10;1.88;;;;;;;20.43;31.86;100494.30;255986;1100;114612;-78
2021/05/09 14:12:03;;;;;;;2.80;1.28;;;;;;;20.47;31.69;100463.30;256318;1104;114209;-77
2021/05/09 14:17:06;;;;;;;2.80;1.25;;;;;;;21.04;30.42;100468.66;256320;1104;114276;-77
2021/05/09 14:22:08;;;;;;;1.75;1.58;;;;;;;20.75;29.93;100459.22;255141;1105;114219;-75
2021/05/09 14:27:10;;;;;;;1.85;1.28;;;;;;;21.20;29.16;100446.55;254987;1107;114278;-77
2021/05/09 14:32:12;;;;;;;2.20;1.05;;;;;;;21.13;28.90;100457.03;255330;1106;114259;-76
2021/05/09 14:37:14;;;;;;;1.63;1.43;;;;;;;21.60;28.80;100438.60;255647;1099;114357;-75
2021/05/09 14:42:16;;;;;;;2.35;1.20;;;;;;;21.62;29.50;100446.63;255109;1107;114341;-80
2021/05/09 14:47:18;;;;;;;1.20;1.10;;;;;;;21.43;30.63;100440.02;255067;1100;114294;-75
2021/05/09 14:52:20;;;;;;;1.97;1.77;;;;;;;21.20;31.34;100444.69;255243;1100;114416;-76
2021/05/09 14:57:22;;;;;;;1.58;1.00;;;;;;;20.89;30.39;100438.27;255093;1100;114251;-78
2021/05/09 15:02:25;;;;;;;1.88;1.10;;;;;;;20.95;30.62;100425.08;255766;1100;114379;-77
2021/05/09 15:07:27;;;;;;;1.03;0.90;;;;;;;20.97;29.98;100435.78;255195;1100;114200;-79
2021/05/09 15:12:29;;;;;;;2.13;1.93;;;;;;;21.29;29.82;100415.93;255085;1107;114480;-77
2021/05/09 15:17:31;;;;;;;2.63;1.55;;;;;;;21.39;31.74;100418.75;256069;1100;114448;-77
2021/05/09 15:22:33;;;;;;;2.20;1.35;;;;;;;21.18;30.77;100412.30;256098;1104;114123;-80
2021/05/09 15:27:35;;;;;;;2.00;1.03;;;;;;;21.56;29.73;100406.45;255318;1100;115138;-77
2021/05/09 15:32:37;;;;;;;1.40;1.20;;;;;;;21.83;30.88;100388.79;255182;1107;114361;-77
2021/05/09 15:37:39;;;;;;;1.80;1.17;;;;;;;21.43;29.42;100390.36;255356;1100;114439;-75
2021/05/09 15:42:41;;;;;;;1.98;1.20;;;;;;;21.91;29.76;100389.83;255968;1100;114571;-77
2021/05/09 15:47:43;;;;;;;1.88;1.25;;;;;;;21.92;30.66;100387.98;255332;1100;114479;-77
2021/05/09 15:52:46;;;;;;;1.20;1.00;;;;;;;22.20;28.61;100390.96;255161;1100;114308;-80
2021/05/09 15:57:51;;;;;;;0.98;0.98;;;;;;;21.58;29.62;100386.37;255589;1099;114179;-77
2021/05/09 16:02:54;;;;;;;1.70;1.20;;;;;;;22.54;28.60;100393.38;255760;1099;114653;-80
2021/05/09 16:07:56;;;;;;;1.40;1.30;;;;;;;22.18;29.13;100392.95;255350;1105;114267;-80
2021/05/09 16:12:59;;;;;;;1.18;1.00;;;;;;;21.74;29.73;100380.45;255205;1100;114207;-77
2021/05/09 16:18:02;;;;;;;2.75;1.30;;;;;;;21.53;30.11;100376.87;255231;1100;114514;-77
2021/05/09 16:23:04;;;;;;;4.43;1.20;;;;;;;21.12;30.55;100374.00;255142;1100;114372;-76
2021/05/09 16:28:06;;;;;;;1.78;1.03;;;;;;;20.84;30.74;100371.79;255160;1101;114422;-76
2021/05/09 16:33:08;;;;;;;1.78;1.20;;;;;;;20.72;31.21;100372.83;255290;1100;114280;-79
2021/05/09 16:38:11;;;;;;;1.23;1.13;;;;;;;20.59;30.95;100372.06;255354;1100;114080;-78
2021/05/09 16:43:13;;;;;;;1.55;1.45;;;;;;;20.44;31.50;100368.78;256939;1107;114723;-78
2021/05/09 16:48:15;;;;;;;2.10;1.58;;;;;;;20.46;31.80;100373.08;256040;1107;114137;-75
2021/05/09 16:54:07;;;;;;;2.38;1.20;;;;;;;20.23;32.14;100381.22;255429;1107;114512;-77
2021/05/09 16:58:40;;;;;;;1.30;1.20;;;;;;;20.02;32.66;100374.84;255412;1105;114405;-79
2021/05/09 17:03:44;;;;;;;1.65;1.45;;;;;;;19.89;33.10;100369.56;256218;1104;114901;-76
2021/05/09 17:08:46;;;;;;;1.47;1.33;;;;;;;19.76;33.88;100366.94;255883;1100;114275;-77
2021/05/09 17:13:48;;;;;;;1.40;1.18;;;;;;;19.59;34.30;100358.30;254957;1106;114271;-79
2021/05/09 17:18:51;;;;;;;2.45;2.25;;;;;;;19.43;34.70;100355.09;255483;1106;114542;-76
2021/05/09 17:23:53;;;;;;;1.38;1.28;;;;;;;19.32;34.50;100349.65;255521;1104;114572;-74
2021/05/09 17:28:56;;;;;;;1.75;1.48;;;;;;;19.19;35.62;100355.16;255411;1100;114094;-77
2021/05/09 17:33:58;;;;;;;1.60;1.50;;;;;;;19.07;35.02;100351.55;255179;1106;114284;-76
2021/05/09 17:39:00;;;;;;;1.75;1.48;;;;;;;18.88;36.13;100352.94;255236;1100;114271;-77
2021/05/09 17:44:03;;;;;;;1.75;1.48;;;;;;;18.68;36.59;100350.88;255296;1107;114098;-75
2021/05/09 17:49:07;;;;;;;1.95;1.60;;;;;;;18.55;36.57;100357.16;255503;1100;114228;-79
2021/05/09 17:54:10;;;;;;;1.85;1.75;;;;;;;18.47;38.02;100371.23;255274;1099;114239;-79
2021/05/09 17:59:12;;;;;;;2.50;2.03;;;;;;;18.34;38.38;100364.14;255230;1099;114118;-78
2021/05/09 18:04:14;;;;;;;2.10;1.90;;;;;;;18.27;38.77;100363.75;255335;1100;114700;-79
2021/05/09 18:09:16;;;;;;;3.13;2.50;;;;;;;18.14;38.34;100361.95;255040;1100;114469;-78
2021/05/09 18:14:18;;;;;;;2.20;1.95;;;;;;;18.04;39.19;100368.12;255146;1107;114308;-80
2021/05/09 18:24:42;;;;;;;3.80;2.05;;;;;;;17.83;40.07;100366.80;255111;1100;114570;-78
2021/05/09 18:29:45;;;;;;;7.08;1.85;;;;;;;17.77;39.91;100374.45;255149;1100;114498;-78
2021/05/09 18:34:47;;;;;;;4.00;1.98;;;;;;;17.62;41.19;100379.09;255123;1107;114347;-76
2021/05/09 18:39:50;;;;;;;1.75;1.40;;;;;;;17.53;39.56;100383.30;254993;1100;114962;-77
2021/05/09 18:44:53;;;;;;;3.53;2.68;;;;;;;17.45;39.91;100377.58;255549;1100;114259;-75
2021/05/09 18:49:55;;;;;;;3.03;2.45;;;;;;;17.38;40.68;100384.36;255905;1100;114245;-73
2021/05/09 18:54:58;;;;;;;2.70;2.37;;;;;;;17.30;41.30;100395.67;255189;1107;115384;-74
2021/05/09 19:00:00;;;;;;;2.90;2.13;;;;;;;17.20;41.49;100404.37;255175;1106;114184;-77
2021/05/09 19:05:02;;;;;;;3.10;1.95;;;;;;;17.13;42.08;100402.17;255650;1100;114522;-77
2021/05/09 19:10:05;;;;;;;3.35;2.35;;;;;;;17.01;41.58;100407.43;255961;1104;114341;-77
2021/05/09 19:15:07;;;;;;;2.10;1.95;;;;;;;16.96;41.93;100409.58;255060;1106;114147;-76
2021/05/09 19:20:10;;;;;;;2.80;2.45;;;;;;;16.90;41.81;100404.57;255015;1100;114145;-75
2021/05/09 19:25:13;;;;;;;3.08;2.25;;;;;;;16.85;42.36;100417.45;255119;1099;114626;-74
2021/05/09 19:30:15;;;;;;;2.48;1.70;;;;;;;16.82;42.50;100412.28;255691;1099;114205;-75
2021/05/09 19:35:18;;;;;;;2.40;2.20;;;;;;;16.62;42.65;100409.08;255151;1107;114313;-74
2021/05/09 19:40:20;;;;;;;3.47;2.50;;;;;;;16.58;41.69;100404.84;255146;1107;114381;-74
2021/05/09 19:45:22;;;;;;;2.73;2.53;;;;;;;16.51;42.60;100408.89;255236;1105;114503;-75
2021/05/09 19:50:25;;;;;;;3.30;2.15;;;;;;;16.46;42.85;100401.12;259008;1100;114460;-74
2021/05/09 19:55:27;;;;;;;2.57;2.37;;;;;;;16.44;43.33;100400.38;255314;1105;115024;-73
2021/05/09 20:00:29;;;;;;;4.13;3.05;;;;;;;16.40;43.95;100401.52;254935;1107;114287;-73
2021/05/09 20:05:31;;;;;;;2.60;2.35;;;;;;;16.23;43.51;100402.59;254999;1100;114157;-73
2021/05/09 20:10:33;;;;;;;2.47;2.13;;;;;;;16.23;44.28;100398.10;254973;1100;114353;-72
2021/05/09 20:15:35;;;;;;;3.15;2.33;;;;;;;16.08;43.99;100396.38;254851;1100;114379;-74
2021/05/09 20:20:39;;;;;;;2.55;2.18;;;;;;;16.06;44.05;100403.67;254877;1107;114494;-74
2021/05/09 20:25:41;;;;;;;2.75;2.43;;;;;;;16.01;45.11;100395.89;255473;1107;114580;-74
2021/05/09 20:30:43;;;;;;;2.55;2.10;;;;;;;15.91;44.68;100400.13;255050;1107;114480;-74
2021/05/09 20:35:45;;;;;;;4.23;2.30;;;;;;;15.80;45.41;100389.13;254984;1103;114450;-73
2021/05/09 20:40:50;;;;;;;2.38;2.18;;;;;;;15.77;45.37;100385.70;255433;1100;114640;-75
2021/05/09 20:45:52;;;;;;;2.50;2.30;;;;;;;15.69;45.54;100396.05;256614;1100;114349;-73
2021/05/09 20:50:55;;;;;;;3.08;2.43;;;;;;;15.64;46.31;100408.91;255148;1105;114993;-73
2021/05/09 20:55:57;;;;;;;3.73;2.20;;;;;;;15.65;46.48;100407.92;255036;1107;114329;-73
2021/05/09 21:00:59;;;;;;;2.75;2.55;;;;;;;15.52;46.69;100420.38;254388;1107;114278;-73
2021/05/09 21:06:01;;;;;;;3.67;2.20;;;;;;;15.46;46.76;100414.42;255028;1105;114455;-73
2021/05/09 21:11:04;;;;;;;2.73;2.35;;;;;;;15.40;47.19;100412.11;256526;1105;114519;-72
2021/05/09 21:16:06;;;;;;;2.10;1.93;;;;;;;15.34;47.42;100425.03;256558;1106;114236;-72
2021/05/09 21:21:08;;;;;;;2.53;2.20;;;;;;;15.29;47.74;100431.55;256621;1100;114404;-72
2021/05/09 21:26:10;;;;;;;1.97;1.83;;;;;;;15.22;48.72;100424.81;255122;1100;114350;-73
2021/05/09 21:31:12;;;;;;;3.23;1.98;;;;;;;15.23;48.17;100436.41;254363;1100;114570;-71
2021/05/09 21:36:15;;;;;;;2.30;2.10;;;;;;;15.12;48.74;100427.17;254762;1106;114304;-73
2021/05/09 21:41:17;;;;;;;2.10;1.90;;;;;;;15.05;49.04;100428.48;255040;1105;114276;-76
2021/05/09 21:46:22;;;;;;;3.00;2.08;;;;;;;14.99;49.40;100436.91;254949;1106;114282;-71
2021/05/09 21:51:24;;;;;;;2.38;2.18;;;;;;;14.92;50.12;100427.47;255083;1105;114268;-74
2021/05/09 21:56:26;;;;;;;2.50;2.00;;;;;;;14.84;50.24;100430.58;254914;1100;115176;-76
2021/05/09 22:01:28;;;;;;;3.03;2.18;;;;;;;14.75;50.42;100423.08;255079;1100;114360;-75
2021/05/09 22:06:30;;;;;;;4.07;2.60;;;;;;;14.72;50.75;100421.44;254688;1102;114680;-73
2021/05/09 22:11:32;;;;;;;4.28;1.98;;;;;;;14.71;51.38;100418.82;254729;1107;114250;-75
2021/05/09 22:16:35;;;;;;;2.23;1.83;;;;;;;14.68;51.10;100417.18;255008;1107;114319;-74
2021/05/09 22:21:37;;;;;;;2.40;2.20;;;;;;;14.63;51.09;100413.88;255112;1106;114571;-72
2021/05/09 22:26:39;;;;;;;2.98;2.10;;;;;;;14.55;51.20;100408.06;255055;1107;114416;-73
2021/05/09 22:31:41;;;;;;;3.20;1.83;;;;;;;14.48;51.46;100413.78;254999;1100;114659;-71
2021/05/09 22:36:43;;;;;;;2.25;2.05;;;;;;;14.40;51.54;100401.77;255554;1104;114711;-74
2021/05/09 22:41:45;;;;;;;2.58;2.15;;;;;;;14.34;51.82;100392.23;256106;1105;114272;-72
2021/05/09 22:46:47;;;;;;;3.45;2.03;;;;;;;14.22;52.50;100400.97;255262;1100;114365;-73
2021/05/09 22:51:50;;;;;;;2.25;1.65;;;;;;;14.16;52.61;100413.77;257566;1104;114165;-71
2021/05/09 22:56:52;;;;;;;2.20;2.00;;;;;;;14.11;52.98;100406.91;256285;1099;114307;-72
2021/05/09 23:01:54;;;;;;;2.40;1.98;;;;;;;14.06;53.74;100412.52;255586;1104;114417;-74
2021/05/09 23:06:56;;;;;;;2.23;2.00;;;;;;;13.90;53.51;100391.05;255480;1100;114274;-73